createdAt,value
2022-08-19T00:01:52.850Z,96193.84
2022-08-19T00:04:23.384Z,96196.34
2022-08-19T00:06:49.972Z,96193.19
2022-08-19T00:09:18.394Z,96200.09
2022-08-19T00:11:45.159Z,96188.50
2022-08-19T00:14:14.426Z,96194.47
2022-08-19T00:16:44.044Z,96202.53
2022-08-19T00:19:11.095Z,96205.25
2022-08-19T00:21:40.756Z,96198.31
2022-08-19T00:24:12.354Z,96209.00
2022-08-19T00:26:40.237Z,96207.06
2022-08-19T00:29:08.774Z,96199.84
2022-08-19T00:31:35.466Z,96195.44
2022-08-19T00:34:02.288Z,96190.91
2022-08-19T00:36:29.891Z,96172.84
2022-08-19T00:38:56.757Z,96187.41
2022-08-19T00:41:25.195Z,96202.13
2022-08-19T00:44:05.372Z,96201.63
2022-08-19T00:46:34.032Z,96204.97
2022-08-19T00:49:03.215Z,96193.84
2022-08-19T00:51:33.366Z,96202.44
2022-08-19T00:54:02.616Z,96200.69
2022-08-19T00:56:31.605Z,96202.78
2022-08-19T00:59:00.003Z,96204.50
2022-08-19T01:01:26.999Z,96200.25
2022-08-19T01:03:58.058Z,96205.56
2022-08-19T01:06:26.506Z,96210.56
2022-08-19T01:08:54.557Z,96206.63
2022-08-19T01:11:21.823Z,96211.50
2022-08-19T01:13:50.411Z,96225.91
2022-08-19T01:16:20.223Z,96227.50
2022-08-19T01:18:47.153Z,96226.22
2022-08-19T01:21:23.317Z,96221.56
2022-08-19T01:23:50.026Z,96219.69
2022-08-19T01:26:20.114Z,96235.53
2022-08-19T01:28:49.686Z,96231.16
2022-08-19T01:31:26.708Z,96231.16
2022-08-19T01:33:57.251Z,96235.72
2022-08-19T01:36:37.089Z,96241.03
2022-08-19T01:39:07.548Z,96238.66
2022-08-19T01:41:35.093Z,96243.38
2022-08-19T01:44:17.915Z,96240.41
2022-08-19T01:46:48.056Z,96242.59
2022-08-19T01:49:15.145Z,96250.72
2022-08-19T01:51:41.706Z,96263.00
2022-08-19T01:54:08.968Z,96271.28
2022-08-19T01:56:36.209Z,96279.28
2022-08-19T01:59:09.345Z,96276.00
2022-08-19T02:01:36.386Z,96280.84
2022-08-19T02:04:03.200Z,96281.19
2022-08-19T02:06:30.444Z,96286.19
2022-08-19T02:08:57.798Z,96284.00
2022-08-19T02:11:36.541Z,96278.66
2022-08-19T02:14:06.705Z,96276.31
2022-08-19T02:16:34.218Z,96272.06
2022-08-19T02:19:03.618Z,96277.09
2022-08-19T02:21:31.239Z,96274.91
2022-08-19T02:23:58.656Z,96283.19
2022-08-19T02:26:27.412Z,96290.72
2022-08-19T02:28:55.488Z,96293.09
2022-08-19T02:31:24.017Z,96290.44
2022-08-19T02:33:53.264Z,96277.22
2022-08-19T02:36:24.077Z,96272.69
2022-08-19T02:38:55.170Z,96269.88
2022-08-19T02:41:32.116Z,96270.63
2022-08-19T02:44:28.859Z,96273.78
2022-08-19T02:46:51.777Z,96267.66
2022-08-19T02:49:20.090Z,96265.00
2022-08-19T02:51:47.007Z,96243.66
2022-08-19T02:54:15.634Z,96247.75
2022-08-19T02:56:44.531Z,96241.66
2022-08-19T02:59:12.755Z,96239.59
2022-08-19T03:01:41.758Z,96238.16
2022-08-19T03:04:10.134Z,96227.31
2022-08-19T03:06:41.840Z,96223.53
2022-08-19T03:09:09.431Z,96225.63
2022-08-19T03:11:36.379Z,96221.84
2022-08-19T03:14:04.655Z,96215.72
2022-08-19T03:16:35.156Z,96215.84
2022-08-19T03:19:03.011Z,96215.22
2022-08-19T03:21:35.040Z,96219.13
2022-08-19T03:24:04.879Z,96225.09
2022-08-19T03:26:31.741Z,96238.75
2022-08-19T03:28:59.139Z,96243.91
2022-08-19T03:31:44.794Z,96244.41
2022-08-19T03:34:18.621Z,96235.25
2022-08-19T03:36:46.416Z,96247.31
2022-08-19T03:39:13.062Z,96262.88
2022-08-19T03:41:45.343Z,96263.13
2022-08-19T03:44:19.402Z,96253.56
2022-08-19T03:46:51.765Z,96246.53
2022-08-19T03:49:20.753Z,96253.28
2022-08-19T03:51:49.531Z,96254.69
2022-08-19T03:54:20.858Z,96255.19
2022-08-19T03:56:50.532Z,96256.75
2022-08-19T03:59:25.990Z,96260.19
2022-08-19T04:01:55.079Z,96268.50
2022-08-19T04:04:22.531Z,96272.91
2022-08-19T04:06:49.243Z,96264.44
2022-08-19T04:09:16.375Z,96266.44
2022-08-19T04:11:52.097Z,96267.53
2022-08-19T04:14:21.889Z,96263.59
2022-08-19T04:16:49.870Z,96271.59
2022-08-19T04:19:17.835Z,96266.25
2022-08-19T04:21:46.528Z,96268.13
2022-08-19T04:24:14.689Z,96270.00
2022-08-19T04:26:41.860Z,96278.00
2022-08-19T04:29:16.580Z,96286.66
2022-08-19T04:31:44.518Z,96294.47
2022-08-19T04:34:12.780Z,96284.53
2022-08-19T04:36:42.500Z,96292.88
2022-08-19T04:39:12.693Z,96284.91
2022-08-19T04:41:58.111Z,96289.63
2022-08-19T04:44:24.714Z,96296.50
2022-08-19T04:46:52.060Z,96302.34
2022-08-19T04:49:23.394Z,96312.78
2022-08-19T04:51:52.274Z,96315.13
2022-08-19T04:54:37.168Z,96313.88
2022-08-19T04:57:07.038Z,96305.88
2022-08-19T04:59:34.568Z,96294.09
2022-08-19T05:02:01.633Z,96297.69
2022-08-19T05:04:29.646Z,96293.84
2022-08-19T05:07:00.070Z,96300.22
2022-08-19T05:09:27.634Z,96301.63
2022-08-19T05:11:54.774Z,96315.22
2022-08-19T05:14:21.999Z,96328.84
2022-08-19T05:16:48.650Z,96323.56
2022-08-19T05:19:33.638Z,96317.03
2022-08-19T05:22:19.972Z,96327.44
2022-08-19T05:25:09.226Z,96324.81
2022-08-19T05:27:33.755Z,96325.63
2022-08-19T05:30:00.840Z,96323.13
2022-08-19T05:32:27.315Z,96321.28
2022-08-19T05:34:53.869Z,96311.56
2022-08-19T05:37:20.354Z,96323.53
2022-08-19T05:39:51.311Z,96330.91
2022-08-19T05:42:18.147Z,96326.72
2022-08-19T05:44:45.435Z,96326.72
2022-08-19T05:47:14.227Z,96320.00
2022-08-19T05:49:40.731Z,96323.25
2022-08-19T05:52:14.476Z,96319.63
2022-08-19T05:54:48.800Z,96321.81
2022-08-19T05:57:19.445Z,96324.47
2022-08-19T05:59:48.597Z,96311.59
2022-08-19T06:02:15.722Z,96322.31
2022-08-19T06:04:43.868Z,96320.34
2022-08-19T06:07:12.323Z,96317.28
2022-08-19T06:09:41.017Z,96323.16
2022-08-19T06:12:10.149Z,96327.38
2022-08-19T06:14:40.210Z,96324.44
2022-08-19T06:17:09.197Z,96316.47
2022-08-19T06:19:40.564Z,96333.53
2022-08-19T06:22:08.612Z,96332.31
2022-08-19T06:24:36.176Z,96328.91
2022-08-19T06:27:06.352Z,96343.00
2022-08-19T06:29:33.642Z,96333.03
2022-08-19T06:32:02.101Z,96324.97
2022-08-19T06:34:29.795Z,96330.66
2022-08-19T06:36:58.419Z,96335.09
2022-08-19T06:39:27.486Z,96323.31
2022-08-19T06:41:58.932Z,96329.13
2022-08-19T06:44:35.257Z,96336.50
2022-08-19T06:47:09.585Z,96341.22
2022-08-19T06:49:42.058Z,96345.81
2022-08-19T06:52:09.807Z,96340.47
2022-08-19T06:54:45.937Z,96358.38
2022-08-19T06:57:24.270Z,96352.03
2022-08-19T06:59:51.163Z,96351.84
2022-08-19T07:04:44.681Z,96356.94
2022-08-19T07:07:21.384Z,96360.88
2022-08-19T07:09:51.835Z,96351.38
2022-08-19T07:12:33.804Z,96342.50
2022-08-19T07:15:02.295Z,96352.97
2022-08-19T07:17:28.731Z,96351.91
2022-08-19T07:19:56.120Z,96353.91
2022-08-19T07:22:26.082Z,96352.38
2022-08-19T07:24:53.543Z,96354.16
2022-08-19T07:27:24.811Z,96357.41
2022-08-19T07:29:56.134Z,96339.94
2022-08-19T07:32:27.270Z,96348.44
2022-08-19T07:34:53.851Z,96334.84
2022-08-19T07:37:20.239Z,96352.47
2022-08-19T07:39:46.830Z,96347.22
2022-08-19T07:42:14.578Z,96353.13
2022-08-19T07:47:47.786Z,96350.06
2022-08-19T07:50:00.407Z,96350.84
2022-08-19T07:52:27.388Z,96347.72
2022-08-19T07:54:53.920Z,96353.88
2022-08-19T07:57:20.524Z,96361.72
2022-08-19T07:59:47.076Z,96354.34
2022-08-19T08:02:13.721Z,96363.00
2022-08-19T08:04:58.618Z,96372.31
2022-08-19T08:07:46.181Z,96357.59
2022-08-19T08:10:20.413Z,96370.50
2022-08-19T08:12:54.742Z,96360.78
2022-08-19T08:15:39.827Z,96354.16
2022-08-19T08:18:08.631Z,96351.53
2022-08-19T08:20:35.791Z,96349.97
2022-08-19T08:23:21.106Z,96346.44
2022-08-19T08:25:49.349Z,96339.69
2022-08-19T08:28:17.424Z,96335.84
2022-08-19T08:30:46.670Z,96335.69
2022-08-19T08:33:13.310Z,96330.66
2022-08-19T08:35:46.536Z,96336.66
2022-08-19T08:38:13.161Z,96338.69
2022-08-19T08:40:42.757Z,96347.00
2022-08-19T08:43:11.180Z,96344.50
2022-08-19T08:45:44.982Z,96342.75
2022-08-19T08:48:24.134Z,96342.63
2022-08-19T08:50:55.157Z,96345.91
2022-08-19T08:53:26.305Z,96351.72
2022-08-19T08:55:55.868Z,96348.72
2022-08-19T08:58:27.699Z,96353.75
2022-08-19T09:00:54.264Z,96346.03
2022-08-19T09:03:23.270Z,96340.72
2022-08-19T09:06:16.950Z,96346.38
2022-08-19T09:09:11.816Z,96339.63
2022-08-19T09:11:57.539Z,96343.56
2022-08-19T09:14:54.345Z,96343.09
2022-08-19T09:17:31.412Z,96347.47
2022-08-19T09:20:09.109Z,96346.22
2022-08-19T09:22:40.359Z,96351.25
2022-08-19T09:25:10.018Z,96351.09
2022-08-19T09:27:43.010Z,96342.00
2022-08-19T09:30:19.569Z,96347.19
2022-08-19T09:32:46.519Z,96346.53
2022-08-19T09:35:14.352Z,96346.38
2022-08-19T09:37:41.755Z,96343.97
2022-08-19T09:40:12.111Z,96345.25
2022-08-19T09:42:39.241Z,96345.72
2022-08-19T09:45:18.946Z,96343.13
2022-08-19T09:47:45.425Z,96337.72
2022-08-19T09:50:16.489Z,96346.06
2022-08-19T09:52:53.986Z,96343.56
2022-08-19T09:55:24.139Z,96332.34
2022-08-19T09:57:50.760Z,96338.31
2022-08-19T10:00:17.285Z,96345.16
2022-08-19T10:02:45.757Z,96343.31
2022-08-19T10:05:30.796Z,96347.94
2022-08-19T10:07:57.727Z,96354.41
2022-08-19T10:10:25.037Z,96343.66
2022-08-19T10:12:51.581Z,96346.78
2022-08-19T10:15:29.196Z,96363.25
2022-08-19T10:17:56.805Z,96357.03
2022-08-19T10:20:25.948Z,96357.97
2022-08-19T10:22:52.461Z,96363.63
2022-08-19T10:25:20.038Z,96356.72
2022-08-19T10:27:51.167Z,96362.72
2022-08-19T10:30:22.727Z,96362.25
2022-08-19T10:32:51.452Z,96360.38
2022-08-19T10:35:21.924Z,96366.78
2022-08-19T10:37:57.472Z,96360.53
2022-08-19T10:40:28.659Z,96353.91
2022-08-19T10:42:56.701Z,96349.66
2022-08-19T10:45:25.876Z,96359.97
2022-08-19T10:47:54.773Z,96343.22
2022-08-19T10:50:40.550Z,96352.78
2022-08-19T10:53:09.854Z,96346.84
2022-08-19T10:55:55.006Z,96347.19
2022-08-19T10:58:24.635Z,96357.53
2022-08-19T11:00:57.456Z,96356.91
2022-08-19T11:03:25.111Z,96355.47
2022-08-19T11:06:02.692Z,96357.34
2022-08-19T11:08:29.405Z,96347.47
2022-08-19T11:10:58.495Z,96363.66
2022-08-19T11:13:25.659Z,96361.94
2022-08-19T11:16:05.103Z,96357.81
2022-08-19T11:18:34.143Z,96364.44
2022-08-19T11:21:13.588Z,96361.44
2022-08-19T11:23:40.839Z,96350.28
2022-08-19T11:26:07.559Z,96346.22
2022-08-19T11:28:34.137Z,96336.66
2022-08-19T11:31:00.533Z,96338.22
2022-08-19T11:33:27.347Z,96339.31
2022-08-19T11:35:55.114Z,96343.41
2022-08-19T11:38:21.600Z,96340.81
2022-08-19T11:40:55.871Z,96349.09
2022-08-19T11:43:22.538Z,96358.53
2022-08-19T11:45:49.662Z,96353.53
2022-08-19T11:48:16.290Z,96353.53
2022-08-19T11:50:44.532Z,96348.19
2022-08-19T11:53:11.024Z,96343.00
2022-08-19T11:55:39.948Z,96348.00
2022-08-19T11:58:15.021Z,96346.13
2022-08-19T12:00:46.119Z,96348.41
2022-08-19T12:03:13.963Z,96348.38
2022-08-19T12:05:41.825Z,96356.16
2022-08-19T12:08:08.932Z,96351.53
2022-08-19T12:10:35.939Z,96364.72
2022-08-19T12:13:02.694Z,96360.00
2022-08-19T12:15:33.722Z,96359.81
2022-08-19T12:18:05.400Z,96354.63
2022-08-19T12:20:32.035Z,96354.03
2022-08-19T12:23:02.112Z,96360.16
2022-08-19T12:25:28.573Z,96360.44
2022-08-19T12:27:57.580Z,96357.31
2022-08-19T12:30:25.436Z,96365.94
2022-08-19T12:32:52.464Z,96365.34
2022-08-19T12:35:21.065Z,96369.78
2022-08-19T12:37:56.959Z,96365.31
2022-08-19T12:40:24.334Z,96373.09
2022-08-19T12:42:53.329Z,96387.28
2022-08-19T12:45:20.071Z,96381.81
2022-08-19T12:47:47.845Z,96392.81
2022-08-19T12:50:16.192Z,96391.72
2022-08-19T12:52:43.273Z,96389.88
2022-08-19T12:55:11.589Z,96393.03
2022-08-19T12:57:38.577Z,96387.34
2022-08-19T13:00:14.721Z,96392.63
2022-08-19T13:02:47.465Z,96391.75
2022-08-19T13:05:20.760Z,96387.00
2022-08-19T13:07:47.900Z,96377.81
2022-08-19T13:10:21.609Z,96380.31
2022-08-19T13:12:50.329Z,96378.50
2022-08-19T13:15:23.859Z,96377.00
2022-08-19T13:17:54.773Z,96381.53
2022-08-19T13:20:23.105Z,96389.41
2022-08-19T13:22:49.818Z,96392.25
2022-08-19T13:25:19.431Z,96385.47
2022-08-19T13:27:47.389Z,96391.25
2022-08-19T13:30:34.876Z,96377.94
2022-08-19T13:33:17.123Z,96385.97
2022-08-19T13:35:47.265Z,96384.25
2022-08-19T13:38:15.417Z,96390.44
2022-08-19T13:40:42.262Z,96392.53
2022-08-19T13:43:17.557Z,96391.97
2022-08-19T13:45:53.535Z,96391.81
2022-08-19T13:48:20.053Z,96390.56
2022-08-19T13:50:48.237Z,96401.06
2022-08-19T13:53:16.533Z,96394.72
2022-08-19T13:55:44.233Z,96389.06
2022-08-19T13:58:11.786Z,96400.31
2022-08-19T14:00:44.608Z,96391.47
2022-08-19T14:03:12.138Z,96398.75
2022-08-19T14:05:38.834Z,96391.75
2022-08-19T14:08:05.485Z,96398.44
2022-08-19T14:10:32.904Z,96396.72
2022-08-19T14:13:02.285Z,96398.75
2022-08-19T14:15:29.979Z,96399.41
2022-08-19T14:17:57.174Z,96394.06
2022-08-19T14:20:26.150Z,96393.81
2022-08-19T14:22:53.864Z,96380.75
2022-08-19T14:25:25.960Z,96393.09
2022-08-19T14:27:53.055Z,96393.03
2022-08-19T14:30:23.584Z,96393.81
2022-08-19T14:32:50.065Z,96397.16
2022-08-19T14:35:17.388Z,96392.44
2022-08-19T14:37:46.296Z,96392.47
2022-08-19T14:40:21.590Z,96387.53
2022-08-19T14:42:49.400Z,96390.09
2022-08-19T14:45:15.986Z,96383.66
2022-08-19T14:47:42.489Z,96387.16
2022-08-19T14:50:18.419Z,96369.91
2022-08-19T14:52:49.494Z,96375.28
2022-08-19T14:55:18.106Z,96374.63
2022-08-19T14:57:45.483Z,96380.94
2022-08-19T15:00:14.017Z,96377.41
2022-08-19T15:02:45.229Z,96370.03
2022-08-19T15:05:12.233Z,96381.41
2022-08-19T15:07:39.215Z,96384.00
2022-08-19T15:10:07.917Z,96378.94
2022-08-19T15:12:40.698Z,96379.25
2022-08-19T15:15:09.368Z,96372.81
2022-08-19T15:17:45.261Z,96375.38
2022-08-19T15:20:20.138Z,96382.16
2022-08-19T15:22:46.642Z,96378.50
2022-08-19T15:25:14.493Z,96392.19
2022-08-19T15:27:41.666Z,96392.00
2022-08-19T15:30:10.122Z,96397.47
2022-08-19T15:32:38.414Z,96400.38
2022-08-19T15:35:06.313Z,96406.25
2022-08-19T15:37:37.080Z,96393.47
2022-08-19T15:40:06.541Z,96399.34
2022-08-19T15:42:33.964Z,96399.22
2022-08-19T15:45:01.343Z,96395.28
2022-08-19T15:47:35.151Z,96396.31
2022-08-19T15:50:10.457Z,96401.28
2022-08-19T15:52:49.574Z,96405.66
2022-08-19T15:55:32.965Z,96399.81
2022-08-19T15:58:29.850Z,96413.00
2022-08-19T16:01:20.481Z,96398.00
2022-08-19T16:04:14.669Z,96407.66
2022-08-19T16:06:51.538Z,96416.38
2022-08-19T16:09:24.902Z,96418.94
2022-08-19T16:11:56.957Z,96418.50
2022-08-19T16:14:26.226Z,96407.06
2022-08-19T16:16:54.036Z,96411.38
2022-08-19T16:19:20.659Z,96407.94
2022-08-19T16:21:48.515Z,96426.84
2022-08-19T16:24:17.554Z,96410.13
2022-08-19T16:26:44.968Z,96429.94
2022-08-19T16:29:13.259Z,96426.50
2022-08-19T16:31:43.505Z,96428.97
2022-08-19T16:34:11.138Z,96439.41
2022-08-19T16:36:41.888Z,96433.06
2022-08-19T16:39:10.786Z,96438.94
2022-08-19T16:41:37.918Z,96448.25
2022-08-19T16:44:09.667Z,96457.25
2022-08-19T16:46:37.275Z,96440.81
2022-08-19T16:49:05.159Z,96448.13
2022-08-19T16:51:33.766Z,96454.53
2022-08-19T16:54:03.487Z,96455.03
2022-08-19T16:56:30.340Z,96452.16
2022-08-19T16:58:58.389Z,96447.56
2022-08-19T17:01:26.321Z,96460.66
2022-08-19T17:03:53.711Z,96467.69
2022-08-19T17:06:26.057Z,96466.84
2022-08-19T17:08:56.124Z,96465.88
2022-08-19T17:11:24.608Z,96466.56
2022-08-19T17:13:51.507Z,96467.19
2022-08-19T17:16:24.849Z,96468.19
2022-08-19T17:18:56.291Z,96471.59
2022-08-19T17:21:27.824Z,96461.97
2022-08-19T17:23:58.255Z,96466.41
2022-08-19T17:26:25.679Z,96462.47
2022-08-19T17:28:54.889Z,96463.56
2022-08-19T17:31:23.685Z,96475.31
2022-08-19T17:33:51.231Z,96478.53
2022-08-19T17:36:23.633Z,96470.53
2022-08-19T17:38:51.154Z,96476.50
2022-08-19T17:41:17.642Z,96480.06
2022-08-19T17:43:44.877Z,96475.97
2022-08-19T17:46:17.934Z,96488.69
2022-08-19T17:48:55.127Z,96488.47
2022-08-19T17:51:40.599Z,96484.34
2022-08-19T17:54:12.060Z,96488.19
2022-08-19T17:56:38.596Z,96485.34
2022-08-19T17:59:07.803Z,96490.75
2022-08-19T18:01:52.070Z,96487.78
2022-08-19T18:04:19.905Z,96503.59
2022-08-19T18:06:53.212Z,96502.44
2022-08-19T18:09:40.388Z,96532.03
2022-08-19T18:12:11.805Z,96523.31
2022-08-19T18:14:39.201Z,96525.75
2022-08-19T18:17:09.937Z,96525.28
2022-08-19T18:19:43.342Z,96529.16
2022-08-19T18:22:24.304Z,96533.97
2022-08-19T18:24:51.021Z,96540.91
2022-08-19T18:27:17.616Z,96550.66
2022-08-19T18:29:44.653Z,96552.16
2022-08-19T18:32:14.792Z,96563.59
2022-08-19T18:34:43.350Z,96569.88
2022-08-19T18:37:10.668Z,96571.34
2022-08-19T18:39:55.956Z,96573.91
2022-08-19T18:42:41.233Z,96586.13
2022-08-19T18:45:27.874Z,96581.31
2022-08-19T18:48:26.574Z,96579.72
2022-08-19T18:50:59.530Z,96604.44
2022-08-19T18:53:28.153Z,96596.28
2022-08-19T18:55:55.445Z,96605.22
2022-08-19T18:58:26.622Z,96612.94
2022-08-19T19:00:56.852Z,96613.00
2022-08-19T19:03:24.428Z,96612.03
2022-08-19T19:05:52.164Z,96623.84
2022-08-19T19:08:19.158Z,96616.53
2022-08-19T19:10:45.753Z,96621.00
2022-08-19T19:13:16.299Z,96620.97
2022-08-19T19:15:43.891Z,96616.41
2022-08-19T19:18:13.471Z,96623.91
2022-08-19T19:20:43.137Z,96625.13
2022-08-19T19:23:09.729Z,96620.69
2022-08-19T19:25:49.869Z,96631.38
2022-08-19T19:28:16.725Z,96630.13
2022-08-19T19:30:43.207Z,96629.06
2022-08-19T19:33:09.706Z,96648.75
2022-08-19T19:35:36.305Z,96630.69
2022-08-19T19:38:02.717Z,96638.00
2022-08-19T19:40:29.367Z,96625.50
2022-08-19T19:42:55.898Z,96633.88
2022-08-19T19:45:22.824Z,96633.38
2022-08-19T19:47:50.083Z,96638.31
2022-08-19T19:50:17.613Z,96647.94
2022-08-19T19:52:46.282Z,96641.03
2022-08-19T19:55:18.092Z,96649.47
2022-08-19T19:57:48.994Z,96642.25
2022-08-19T20:00:18.719Z,96647.63
2022-08-19T20:02:49.260Z,96655.03
2022-08-19T20:05:19.198Z,96661.69
2022-08-19T20:08:05.633Z,96657.63
2022-08-19T20:10:32.574Z,96659.84
2022-08-19T20:13:02.727Z,96659.31
2022-08-19T20:15:32.036Z,96665.00
2022-08-19T20:17:59.852Z,96662.72
2022-08-19T20:20:26.633Z,96661.63
2022-08-19T20:22:53.875Z,96650.22
2022-08-19T20:25:22.311Z,96654.66
2022-08-19T20:27:49.801Z,96658.91
2022-08-19T20:30:19.818Z,96655.97
2022-08-19T20:32:47.543Z,96655.53
2022-08-19T20:35:16.996Z,96662.81
2022-08-19T20:37:43.490Z,96661.09
2022-08-19T20:40:11.354Z,96666.63
2022-08-19T20:42:40.429Z,96668.50
2022-08-19T20:45:32.334Z,96664.78
2022-08-19T20:48:02.716Z,96664.81
2022-08-19T20:50:30.536Z,96668.81
2022-08-19T20:52:57.573Z,96667.97
2022-08-19T20:55:24.335Z,96672.22
2022-08-19T20:57:51.599Z,96669.59
2022-08-19T21:00:18.910Z,96673.34
2022-08-19T21:02:46.829Z,96672.03
2022-08-19T21:05:13.809Z,96672.00
2022-08-19T21:07:40.423Z,96674.59
2022-08-19T21:10:07.354Z,96677.59
2022-08-19T21:12:33.863Z,96672.00
2022-08-19T21:15:00.303Z,96673.78
2022-08-19T21:17:26.797Z,96672.31
2022-08-19T21:19:53.375Z,96672.53
2022-08-19T21:22:19.853Z,96675.94
2022-08-19T21:24:46.459Z,96680.81
2022-08-19T21:27:12.879Z,96682.94
2022-08-19T21:29:40.539Z,96675.44
2022-08-19T21:32:07.580Z,96692.41
2022-08-19T21:34:34.233Z,96680.75
2022-08-19T21:37:00.815Z,96675.47
2022-08-19T21:39:27.302Z,96684.69
2022-08-19T21:41:54.432Z,96688.72
2022-08-19T21:44:21.250Z,96691.34
2022-08-19T21:46:50.576Z,96675.44
2022-08-19T21:49:17.477Z,96680.69
2022-08-19T21:51:44.156Z,96687.84
2022-08-19T21:54:14.141Z,96692.41
2022-08-19T21:56:41.037Z,96695.91
2022-08-19T21:59:07.862Z,96701.16
2022-08-19T22:02:51.177Z,96712.75
2022-08-19T22:05:22.926Z,96709.78
2022-08-19T22:07:51.153Z,96707.88
2022-08-19T22:10:19.202Z,96703.16
2022-08-19T22:12:51.366Z,96711.03
2022-08-19T22:15:21.170Z,96701.97
2022-08-19T22:17:48.178Z,96705.94
2022-08-19T22:20:17.966Z,96700.63
2022-08-19T22:22:53.443Z,96699.00
2022-08-19T22:25:30.064Z,96700.31
2022-08-19T22:28:01.755Z,96700.59
2022-08-19T22:30:33.700Z,96704.81
2022-08-19T22:33:04.456Z,96703.72
2022-08-19T22:35:34.428Z,96697.59
2022-08-19T22:38:02.357Z,96705.84
2022-08-19T22:40:30.692Z,96706.66
2022-08-19T22:43:03.473Z,96698.16
2022-08-19T22:45:30.972Z,96700.31
2022-08-19T22:47:57.829Z,96699.28
2022-08-19T22:50:24.511Z,96702.16
2022-08-19T22:52:59.635Z,96690.50
2022-08-19T22:55:27.595Z,96692.22
2022-08-19T22:57:54.438Z,96677.97
2022-08-19T23:00:23.486Z,96674.75
2022-08-19T23:02:51.670Z,96672.59
2022-08-19T23:05:22.009Z,96676.84
2022-08-19T23:07:52.141Z,96674.13
2022-08-19T23:10:27.202Z,96670.69
2022-08-19T23:12:56.566Z,96671.25
2022-08-19T23:15:27.682Z,96677.34
2022-08-19T23:17:56.230Z,96678.09
2022-08-19T23:20:27.208Z,96680.50
2022-08-19T23:22:54.979Z,96676.78
2022-08-19T23:25:33.971Z,96672.28
2022-08-19T23:28:19.966Z,96668.88
2022-08-19T23:30:48.955Z,96663.34
2022-08-19T23:33:39.761Z,96672.09
2022-08-19T23:36:17.737Z,96674.19
2022-08-19T23:38:46.389Z,96681.69
2022-08-19T23:41:15.541Z,96690.53
2022-08-19T23:43:42.846Z,96692.41
2022-08-19T23:46:12.096Z,96700.03
2022-08-19T23:48:39.775Z,96700.78
2022-08-19T23:51:10.014Z,96701.28
2022-08-19T23:53:38.539Z,96697.94
2022-08-19T23:56:07.437Z,96694.94
2022-08-19T23:58:35.665Z,96688.84
